createdAt,value
2018-03-07T00:00:07.187Z,22.60
2018-03-07T00:02:34.689Z,20.37
2018-03-07T00:05:02.177Z,14.67
2018-03-07T00:07:29.645Z,21.90
2018-03-07T00:09:57.099Z,20.07
2018-03-07T00:12:25.370Z,21.40
2018-03-07T00:14:54.361Z,19.50
2018-03-07T00:17:21.858Z,17.17
2018-03-07T00:19:50.097Z,19.10
2018-03-07T00:22:17.571Z,18.00
2018-03-07T00:24:45.033Z,25.27
2018-03-07T00:27:12.510Z,15.60
2018-03-07T00:29:40.738Z,20.77
2018-03-07T00:32:08.224Z,21.80
2018-03-07T00:34:36.483Z,23.30
2018-03-07T00:37:03.959Z,18.33
2018-03-07T00:39:32.202Z,23.83
2018-03-07T00:41:59.679Z,19.47
2018-03-07T00:44:27.146Z,19.60
2018-03-07T00:46:54.627Z,24.87
2018-03-07T00:49:22.094Z,23.63
2018-03-07T00:51:49.563Z,34.60
2018-03-07T00:54:17.032Z,23.40
2018-03-07T00:56:44.483Z,26.17
2018-03-07T00:59:11.962Z,22.03
2018-03-07T01:01:39.435Z,29.20
2018-03-07T01:04:06.933Z,21.03
2018-03-07T01:06:34.406Z,26.13
2018-03-07T01:09:01.868Z,24.53
2018-03-07T01:11:29.317Z,24.07
2018-03-07T01:13:56.800Z,25.10
2018-03-07T01:16:24.261Z,24.13
2018-03-07T01:18:51.715Z,25.60
2018-03-07T01:21:19.187Z,21.00
2018-03-07T01:23:46.646Z,26.43
2018-03-07T01:26:14.108Z,26.70
2018-03-07T01:28:41.578Z,23.00
2018-03-07T01:31:09.809Z,31.00
2018-03-07T01:33:37.258Z,34.10
2018-03-07T01:36:04.727Z,29.50
2018-03-07T01:38:32.184Z,30.90
2018-03-07T01:40:59.683Z,27.00
2018-03-07T01:43:27.207Z,35.30
2018-03-07T01:45:54.671Z,31.70
2018-03-07T01:48:22.136Z,34.23
2018-03-07T01:50:49.615Z,31.87
2018-03-07T01:53:17.838Z,31.80
2018-03-07T01:55:45.302Z,28.00
2018-03-07T01:58:12.789Z,40.10
2018-03-07T02:00:40.252Z,30.47
2018-03-07T02:03:08.522Z,33.27
2018-03-07T02:05:35.990Z,37.00
2018-03-07T02:08:04.279Z,37.03
2018-03-07T02:10:31.702Z,32.63
2018-03-07T02:12:59.170Z,37.40
2018-03-07T02:15:27.395Z,44.57
2018-03-07T02:17:54.862Z,39.90
2018-03-07T02:20:22.346Z,44.33
2018-03-07T02:22:49.811Z,38.20
2018-03-07T02:25:17.280Z,42.83
2018-03-07T02:27:45.527Z,41.10
2018-03-07T02:30:12.986Z,36.57
2018-03-07T02:32:40.530Z,42.10
2018-03-07T02:35:08.728Z,39.83
2018-03-07T02:37:36.255Z,41.60
2018-03-07T02:40:03.714Z,48.13
2018-03-07T02:42:31.192Z,47.67
2018-03-07T02:44:58.646Z,46.13
2018-03-07T02:47:26.102Z,47.87
2018-03-07T02:49:53.570Z,43.07
2018-03-07T02:52:21.028Z,38.80
2018-03-07T02:54:49.271Z,55.30
2018-03-07T02:57:16.758Z,45.27
2018-03-07T02:59:44.229Z,47.67
2018-03-07T03:02:12.473Z,51.83
2018-03-07T03:04:39.951Z,47.77
2018-03-07T03:07:07.405Z,56.43
2018-03-07T03:09:34.858Z,49.40
2018-03-07T03:12:02.329Z,62.53
2018-03-07T03:14:30.554Z,56.30
2018-03-07T03:16:58.023Z,57.17
2018-03-07T03:19:25.494Z,53.07
2018-03-07T03:21:52.962Z,55.10
2018-03-07T03:24:20.461Z,54.27
2018-03-07T03:26:47.932Z,59.60
2018-03-07T03:29:15.403Z,55.10
2018-03-07T03:31:42.868Z,65.33
2018-03-07T03:34:10.340Z,52.63
2018-03-07T03:36:37.802Z,51.93
2018-03-07T03:39:05.255Z,52.23
2018-03-07T03:41:32.722Z,60.53
2018-03-07T03:44:00.964Z,66.17
2018-03-07T03:46:28.435Z,64.03
2018-03-07T03:48:55.903Z,67.67
2018-03-07T03:51:23.364Z,66.07
2018-03-07T03:53:50.823Z,62.03
2018-03-07T03:56:18.294Z,63.03
2018-03-07T03:58:46.539Z,69.53
2018-03-07T04:01:14.020Z,66.40
2018-03-07T04:03:42.281Z,62.73
2018-03-07T04:06:09.751Z,78.27
2018-03-07T04:08:37.970Z,66.57
2018-03-07T04:11:05.448Z,69.53
2018-03-07T04:13:32.935Z,80.60
2018-03-07T04:16:00.402Z,70.13
2018-03-07T04:18:28.711Z,68.50
2018-03-07T04:20:56.171Z,62.10
2018-03-07T04:23:23.645Z,70.63
2018-03-07T04:25:51.122Z,94.13
2018-03-07T04:28:18.598Z,91.33
2018-03-07T04:30:46.830Z,77.07
2018-03-07T04:33:14.316Z,90.70
2018-03-07T04:35:41.798Z,74.60
2018-03-07T04:38:10.054Z,84.37
2018-03-07T04:40:37.528Z,93.40
2018-03-07T04:43:05.776Z,124.33
2018-03-07T04:45:33.262Z,120.10
2018-03-07T04:48:00.757Z,94.07
2018-03-07T04:50:28.262Z,86.40
2018-03-07T04:52:55.727Z,105.93
2018-03-07T04:55:23.971Z,122.13
2018-03-07T04:57:51.447Z,111.27
2018-03-07T05:00:18.928Z,103.80
2018-03-07T05:02:47.216Z,108.63
2018-03-07T05:05:14.655Z,90.33
2018-03-07T05:07:42.901Z,99.23
2018-03-07T05:10:10.369Z,95.83
2018-03-07T05:12:37.842Z,98.77
2018-03-07T05:15:06.083Z,83.50
2018-03-07T05:17:33.565Z,85.80
2018-03-07T05:20:01.811Z,100.70
2018-03-07T05:22:29.310Z,86.87
2018-03-07T05:24:57.546Z,115.97
2018-03-07T05:27:26.538Z,112.27
2018-03-07T05:29:54.032Z,107.70
2018-03-07T05:32:22.268Z,95.13
2018-03-07T05:34:49.757Z,122.73
2018-03-07T05:37:17.999Z,110.70
2018-03-07T05:39:45.478Z,105.07
2018-03-07T05:42:14.563Z,82.63
2018-03-07T05:44:42.032Z,90.37
2018-03-07T05:47:09.498Z,87.63
2018-03-07T05:49:37.743Z,121.50
2018-03-07T05:52:05.218Z,104.53
2018-03-07T05:54:32.699Z,101.13
2018-03-07T05:57:01.008Z,87.30
2018-03-07T05:59:28.540Z,106.77
2018-03-07T06:01:56.057Z,91.63
2018-03-07T06:04:23.612Z,119.97
2018-03-07T06:06:51.102Z,112.63
2018-03-07T06:09:19.328Z,100.97
2018-03-07T06:11:46.807Z,109.80
2018-03-07T06:14:14.300Z,83.40
2018-03-07T06:16:42.530Z,124.77
2018-03-07T06:19:10.115Z,88.73
2018-03-07T06:21:38.358Z,86.73
2018-03-07T06:24:05.846Z,112.10
2018-03-07T06:26:34.091Z,77.60
2018-03-07T06:29:01.558Z,115.10
2018-03-07T06:31:29.039Z,102.83
2018-03-07T06:33:57.278Z,77.77
2018-03-07T06:36:24.790Z,114.07
2018-03-07T06:38:52.379Z,75.83
2018-03-07T06:41:19.858Z,110.07
2018-03-07T06:43:47.334Z,108.63
2018-03-07T06:46:14.815Z,103.17
2018-03-07T06:48:43.069Z,76.10
2018-03-07T06:51:10.538Z,105.73
2018-03-07T06:53:38.775Z,85.63
2018-03-07T06:56:06.271Z,89.67
2018-03-07T06:58:34.527Z,121.27
2018-03-07T07:01:01.995Z,79.03
2018-03-07T07:03:30.255Z,100.17
2018-03-07T07:05:57.727Z,85.37
2018-03-07T07:08:26.010Z,89.60
2018-03-07T07:10:54.260Z,108.63
2018-03-07T07:13:21.733Z,76.03
2018-03-07T07:15:49.187Z,75.57
2018-03-07T07:18:16.669Z,78.90
2018-03-07T07:20:44.907Z,82.30
2018-03-07T07:23:12.370Z,82.10
2018-03-07T07:25:39.839Z,69.10
2018-03-07T07:28:08.108Z,78.27
2018-03-07T07:30:35.563Z,72.30
2018-03-07T07:33:03.040Z,69.10
2018-03-07T07:35:31.346Z,70.40
2018-03-07T07:37:58.802Z,67.67
2018-03-07T07:40:26.324Z,64.00
2018-03-07T07:42:54.561Z,64.33
2018-03-07T07:45:22.026Z,62.00
2018-03-07T07:47:49.495Z,64.40
2018-03-07T07:50:16.968Z,60.63
2018-03-07T07:52:45.947Z,58.53
2018-03-07T07:55:13.415Z,65.27
2018-03-07T07:57:41.685Z,54.83
2018-03-07T08:00:09.149Z,57.73
2018-03-07T08:02:36.626Z,62.67
2018-03-07T08:05:04.116Z,63.03
2018-03-07T08:07:31.588Z,57.50
2018-03-07T08:09:59.058Z,59.90
2018-03-07T08:12:26.547Z,57.83
2018-03-07T08:14:54.797Z,51.07
2018-03-07T08:17:22.267Z,54.60
2018-03-07T08:19:49.729Z,51.87
2018-03-07T08:22:17.954Z,49.73
2018-03-07T08:24:45.423Z,51.60
2018-03-07T08:27:12.900Z,44.97
2018-03-07T08:29:40.364Z,51.50
2018-03-07T08:32:08.666Z,50.60
2018-03-07T08:34:36.931Z,50.20
2018-03-07T08:37:05.194Z,50.13
2018-03-07T08:39:32.710Z,48.57
2018-03-07T08:42:00.265Z,46.00
2018-03-07T08:44:27.856Z,43.77
2018-03-07T08:46:55.330Z,44.60
2018-03-07T08:49:23.591Z,51.97
2018-03-07T08:51:51.064Z,44.97
2018-03-07T08:54:19.316Z,44.53
2018-03-07T08:56:46.799Z,47.17
2018-03-07T08:59:15.036Z,40.13
2018-03-07T09:01:42.521Z,42.83
2018-03-07T09:04:09.998Z,42.70
2018-03-07T09:06:38.224Z,44.37
2018-03-07T09:09:05.703Z,47.87
2018-03-07T09:11:33.171Z,39.80
2018-03-07T09:14:01.394Z,37.53
2018-03-07T09:16:29.125Z,39.30
2018-03-07T09:18:57.354Z,34.40
2018-03-07T09:21:24.856Z,27.93
2018-03-07T09:23:53.121Z,28.37
2018-03-07T09:26:21.347Z,29.97
2018-03-07T09:28:48.944Z,30.07
2018-03-07T09:31:16.438Z,26.30
2018-03-07T09:33:43.903Z,31.83
2018-03-07T09:36:11.391Z,33.40
2018-03-07T09:38:38.866Z,28.37
2018-03-07T09:41:06.640Z,30.43
2018-03-07T09:43:34.124Z,30.90
2018-03-07T09:46:01.599Z,26.53
2018-03-07T09:48:29.083Z,24.73
2018-03-07T09:50:56.563Z,32.77
2018-03-07T09:53:24.815Z,27.27
2018-03-07T09:55:52.290Z,29.20
2018-03-07T09:58:19.745Z,24.10
2018-03-07T10:00:47.214Z,24.07
2018-03-07T10:03:15.452Z,25.70
2018-03-07T10:05:42.926Z,24.00
2018-03-07T10:08:10.419Z,22.63
2018-03-07T10:10:38.653Z,24.30
2018-03-07T10:13:06.143Z,29.93
2018-03-07T10:15:33.611Z,21.10
2018-03-07T10:18:01.883Z,31.43
2018-03-07T10:20:30.102Z,22.83
2018-03-07T10:22:57.628Z,25.40
2018-03-07T10:25:25.059Z,21.93
2018-03-07T10:27:53.296Z,23.10
2018-03-07T10:30:20.758Z,24.47
2018-03-07T10:32:48.251Z,24.07
2018-03-07T10:35:16.491Z,28.97
2018-03-07T10:37:43.966Z,23.57
2018-03-07T10:40:11.444Z,25.93
2018-03-07T10:42:39.684Z,22.40
2018-03-07T10:45:07.174Z,19.87
2018-03-07T10:47:35.411Z,21.70
2018-03-07T10:50:02.895Z,22.47
2018-03-07T10:52:30.363Z,18.10
2018-03-07T10:54:58.600Z,21.87
2018-03-07T10:57:26.077Z,19.50
2018-03-07T10:59:53.530Z,17.90
2018-03-07T11:02:21.013Z,15.97
2018-03-07T11:04:49.267Z,17.07
2018-03-07T11:07:16.770Z,21.23
2018-03-07T11:09:44.242Z,19.60
2018-03-07T11:12:11.739Z,21.67
2018-03-07T11:14:39.228Z,22.10
2018-03-07T11:17:07.451Z,19.17
2018-03-07T11:19:35.699Z,21.87
2018-03-07T11:22:03.163Z,22.57
2018-03-07T11:24:30.660Z,20.33
2018-03-07T11:26:58.154Z,18.73
2018-03-07T11:29:25.610Z,21.70
2018-03-07T11:31:53.076Z,19.53
2018-03-07T11:34:20.597Z,22.00
2018-03-07T11:36:48.076Z,26.30
2018-03-07T11:39:15.538Z,21.13
2018-03-07T11:41:42.996Z,24.93
2018-03-07T11:44:10.479Z,18.93
2018-03-07T11:46:37.984Z,19.70
2018-03-07T11:49:05.431Z,22.80
2018-03-07T11:51:32.916Z,24.47
2018-03-07T11:54:01.146Z,21.40
2018-03-07T11:56:28.715Z,23.37
2018-03-07T11:58:56.224Z,23.40
2018-03-07T12:01:23.711Z,23.00
2018-03-07T12:03:51.183Z,26.97
2018-03-07T12:06:18.655Z,26.03
2018-03-07T12:08:46.223Z,28.60
2018-03-07T12:11:14.455Z,30.43
2018-03-07T12:13:41.942Z,31.70
2018-03-07T12:16:09.402Z,29.77
2018-03-07T12:18:36.905Z,31.83
2018-03-07T12:21:04.379Z,30.23
2018-03-07T12:23:31.847Z,34.37
2018-03-07T12:25:59.315Z,34.10
2018-03-07T12:28:26.787Z,39.90
2018-03-07T12:30:54.252Z,33.87
2018-03-07T12:33:22.506Z,34.10
2018-03-07T12:35:49.978Z,32.87
2018-03-07T12:38:18.213Z,36.33
2018-03-07T12:40:45.691Z,40.67
2018-03-07T12:43:13.167Z,37.53
2018-03-07T12:45:40.627Z,39.70
2018-03-07T12:48:08.920Z,39.27
2018-03-07T12:50:37.169Z,42.97
2018-03-07T12:53:04.636Z,38.00
2018-03-07T12:55:32.888Z,40.10
2018-03-07T12:58:00.370Z,36.77
2018-03-07T13:00:28.660Z,41.70
2018-03-07T13:02:56.913Z,36.03
2018-03-07T13:05:24.382Z,38.13
2018-03-07T13:07:52.611Z,35.77
2018-03-07T13:10:20.091Z,35.63
2018-03-07T13:12:47.582Z,36.60
2018-03-07T13:15:15.807Z,34.87
2018-03-07T13:17:43.298Z,39.87
2018-03-07T13:20:11.539Z,25.10
2018-03-07T13:22:39.024Z,28.73
2018-03-07T13:25:06.503Z,25.00
2018-03-07T13:27:34.738Z,25.90
2018-03-07T13:30:02.213Z,25.17
2018-03-07T13:32:29.742Z,25.00
2018-03-07T13:34:57.228Z,21.67
2018-03-07T13:37:24.695Z,27.00
2018-03-07T13:39:52.939Z,27.10
2018-03-07T13:42:20.411Z,22.97
2018-03-07T13:44:47.871Z,19.17
2018-03-07T13:47:15.331Z,21.10
2018-03-07T13:49:42.823Z,15.00
2018-03-07T13:52:11.068Z,18.27
2018-03-07T13:54:39.702Z,18.43
2018-03-07T13:57:07.167Z,12.30
2018-03-07T13:59:34.710Z,12.13
2018-03-07T14:02:02.180Z,12.77
2018-03-07T14:04:29.855Z,11.03
2018-03-07T14:06:57.358Z,13.43
2018-03-07T14:09:25.624Z,17.63
2018-03-07T14:11:53.075Z,13.50
2018-03-07T14:14:21.311Z,14.17
2018-03-07T14:16:48.839Z,12.10
2018-03-07T14:19:16.315Z,9.70
2018-03-07T14:21:43.784Z,8.90
2018-03-07T14:24:11.287Z,10.03
2018-03-07T14:26:39.532Z,10.37
2018-03-07T14:29:07.007Z,16.47
2018-03-07T14:31:34.501Z,12.10
2018-03-07T14:34:01.983Z,10.70
2018-03-07T14:36:29.476Z,12.23
2018-03-07T14:38:56.952Z,9.77
2018-03-07T14:41:25.198Z,10.03
2018-03-07T14:43:52.650Z,13.20
2018-03-07T14:46:20.132Z,12.60
2018-03-07T14:48:48.380Z,10.20
2018-03-07T14:51:15.836Z,11.17
2018-03-07T14:53:43.311Z,10.40
2018-03-07T14:56:10.825Z,14.20
2018-03-07T14:58:38.302Z,12.30
2018-03-07T15:01:05.816Z,12.43
2018-03-07T15:03:33.315Z,17.63
2018-03-07T15:06:00.830Z,15.00
2018-03-07T15:08:29.098Z,14.67
2018-03-07T15:10:57.366Z,14.70
2018-03-07T15:13:25.619Z,12.77
2018-03-07T15:15:53.081Z,13.60
2018-03-07T15:18:20.556Z,13.83
2018-03-07T15:20:48.848Z,16.63
2018-03-07T15:23:16.343Z,15.50
2018-03-07T15:25:43.827Z,14.20
2018-03-07T15:28:11.324Z,15.63
2018-03-07T15:30:39.643Z,13.13
2018-03-07T15:33:07.115Z,12.03
2018-03-07T15:35:34.598Z,15.00
2018-03-07T15:38:02.847Z,10.77
2018-03-07T15:40:30.314Z,12.27
2018-03-07T15:42:58.551Z,14.73
2018-03-07T15:45:26.038Z,10.50
2018-03-07T15:47:53.499Z,12.13
2018-03-07T15:50:20.967Z,10.80
2018-03-07T15:52:49.245Z,10.07
2018-03-07T15:55:17.541Z,12.33
2018-03-07T15:57:45.042Z,10.60
2018-03-07T16:00:12.520Z,11.10
2018-03-07T16:02:40.052Z,11.00
2018-03-07T16:05:07.550Z,23.20
2018-03-07T16:07:35.791Z,27.23
2018-03-07T16:10:03.263Z,24.97
2018-03-07T16:12:30.795Z,23.83
2018-03-07T16:14:58.284Z,26.87
2018-03-07T16:17:25.747Z,22.90
2018-03-07T16:19:53.269Z,27.83
2018-03-07T16:22:20.753Z,26.47
2018-03-07T16:24:48.256Z,30.40
2018-03-07T16:27:15.725Z,32.40
2018-03-07T16:29:43.185Z,35.13
2018-03-07T16:32:10.662Z,31.10
2018-03-07T16:34:38.157Z,29.77
2018-03-07T16:37:06.389Z,27.80
2018-03-07T16:39:33.876Z,28.93
2018-03-07T16:42:01.343Z,26.97
2018-03-07T16:44:29.848Z,26.80
2018-03-07T16:46:57.403Z,27.47
2018-03-07T16:49:24.869Z,23.63
2018-03-07T16:51:52.348Z,22.33
2018-03-07T16:54:19.827Z,21.57
2018-03-07T16:56:47.317Z,20.20
2018-03-07T16:59:15.552Z,20.87
2018-03-07T17:01:43.084Z,24.37
2018-03-07T17:04:10.652Z,24.70
2018-03-07T17:06:38.115Z,20.80
2018-03-07T17:09:05.651Z,16.90
2018-03-07T17:11:34.090Z,21.23
2018-03-07T17:14:02.366Z,20.93
2018-03-07T17:16:30.024Z,19.57
2018-03-07T17:18:57.514Z,21.83
2018-03-07T17:21:24.976Z,23.70
2018-03-07T17:23:52.506Z,23.23
2018-03-07T17:26:20.787Z,19.33
2018-03-07T17:28:49.383Z,23.90
2018-03-07T17:31:16.916Z,24.20
2018-03-07T17:33:44.464Z,20.40
2018-03-07T17:36:11.947Z,19.57
2018-03-07T17:38:40.185Z,22.40
2018-03-07T17:41:07.671Z,27.27
2018-03-07T17:43:35.135Z,29.43
2018-03-07T17:46:03.378Z,26.73
2018-03-07T17:48:30.931Z,25.60
2018-03-07T17:50:58.444Z,28.93
2018-03-07T17:53:26.228Z,23.93
2018-03-07T17:55:54.396Z,30.60
2018-03-07T17:58:22.512Z,23.67
2018-03-07T18:00:50.403Z,24.57
2018-03-07T18:03:18.524Z,29.77
2018-03-07T18:05:45.984Z,28.50
2018-03-07T18:08:13.477Z,32.83
2018-03-07T18:10:40.991Z,35.17
2018-03-07T18:13:08.481Z,33.87
2018-03-07T18:15:36.023Z,37.40
2018-03-07T18:18:03.504Z,31.87
2018-03-07T18:20:31.183Z,33.83
2018-03-07T18:22:59.456Z,42.30
2018-03-07T18:25:27.679Z,33.47
2018-03-07T18:27:55.155Z,32.87
2018-03-07T18:30:23.468Z,34.60
2018-03-07T18:32:50.978Z,34.50
2018-03-07T18:35:18.439Z,34.60
2018-03-07T18:37:45.939Z,35.73
2018-03-07T18:40:14.196Z,32.97
2018-03-07T18:42:41.702Z,31.63
2018-03-07T18:45:10.296Z,32.63
2018-03-07T18:47:37.904Z,27.77
2018-03-07T18:50:07.175Z,24.67
2018-03-07T18:52:34.662Z,22.77
2018-03-07T18:55:02.924Z,15.90
2018-03-07T18:57:30.389Z,14.80
2018-03-07T18:59:57.880Z,12.00
2018-03-07T19:02:25.567Z,10.60
2018-03-07T19:04:53.810Z,11.80
2018-03-07T19:07:21.291Z,10.97
2018-03-07T19:09:48.819Z,13.60
2018-03-07T19:12:17.072Z,15.80
2018-03-07T19:14:44.556Z,21.33
2018-03-07T19:17:12.017Z,28.20
2018-03-07T19:19:39.512Z,31.43
2018-03-07T19:22:06.963Z,32.50
2018-03-07T19:24:35.199Z,42.47
2018-03-07T19:27:02.700Z,41.47
2018-03-07T19:29:30.168Z,37.37
2018-03-07T19:31:57.630Z,44.73
2018-03-07T19:34:28.416Z,51.70
2018-03-07T19:36:55.916Z,44.73
2018-03-07T19:39:23.379Z,41.40
2018-03-07T19:41:50.874Z,46.80
2018-03-07T19:44:19.135Z,45.53
2018-03-07T19:46:46.599Z,43.70
2018-03-07T19:49:14.856Z,45.70
2018-03-07T19:51:42.334Z,48.40
2018-03-07T19:54:10.588Z,51.80
2018-03-07T19:56:38.105Z,49.80
2018-03-07T19:59:06.376Z,50.40
2018-03-07T20:01:34.388Z,43.87
2018-03-07T20:04:01.908Z,47.30
2018-03-07T20:06:29.391Z,49.73
2018-03-07T20:08:56.943Z,45.97
2018-03-07T20:11:24.444Z,49.93
2018-03-07T20:13:52.688Z,48.93
2018-03-07T20:16:20.212Z,43.03
2018-03-07T20:18:47.711Z,41.23
2018-03-07T20:21:15.218Z,39.50
2018-03-07T20:23:42.686Z,39.07
2018-03-07T20:26:10.196Z,33.83
2018-03-07T20:28:38.442Z,36.63
2018-03-07T20:31:05.944Z,34.23
2018-03-07T20:33:34.227Z,35.73
2018-03-07T20:36:01.779Z,31.37
2018-03-07T20:38:30.020Z,27.83
2018-03-07T20:40:57.544Z,25.87
2018-03-07T20:43:25.019Z,29.10
2018-03-07T20:45:52.491Z,23.90
2018-03-07T20:48:19.984Z,22.97
2018-03-07T20:50:48.242Z,21.57
2018-03-07T20:53:16.515Z,31.30
2018-03-07T20:55:44.770Z,24.60
2018-03-07T20:58:12.279Z,23.27
2018-03-07T21:00:39.774Z,22.00
2018-03-07T21:03:07.243Z,20.23
2018-03-07T21:05:34.708Z,15.63
2018-03-07T21:08:02.175Z,20.43
2018-03-07T21:10:30.022Z,27.10
2018-03-07T21:12:58.338Z,22.40
2018-03-07T21:15:26.836Z,26.33
2018-03-07T21:17:54.450Z,25.00
2018-03-07T21:20:21.940Z,21.40
2018-03-07T21:22:49.467Z,19.90
2018-03-07T21:25:17.725Z,25.40
2018-03-07T21:27:45.197Z,19.13
2018-03-07T21:30:12.671Z,25.30
2018-03-07T21:32:41.736Z,26.83
2018-03-07T21:35:09.919Z,21.13
2018-03-07T21:37:37.390Z,26.27
2018-03-07T21:40:05.636Z,24.80
2018-03-07T21:42:33.122Z,24.37
2018-03-07T21:45:00.600Z,23.60
2018-03-07T21:47:28.845Z,28.40
2018-03-07T21:49:56.324Z,26.33
2018-03-07T21:52:24.604Z,30.53
2018-03-07T21:54:52.830Z,31.47
2018-03-07T21:57:20.322Z,29.53
2018-03-07T21:59:48.553Z,27.80
2018-03-07T22:02:16.028Z,38.17
2018-03-07T22:04:43.523Z,33.90
2018-03-07T22:07:11.754Z,26.97
2018-03-07T22:09:39.239Z,31.00
2018-03-07T22:12:06.712Z,33.53
2018-03-07T22:14:34.961Z,34.30
2018-03-07T22:17:02.480Z,26.70
2018-03-07T22:19:30.031Z,27.00
2018-03-07T22:21:57.509Z,29.63
2018-03-07T22:24:25.019Z,31.60
2018-03-07T22:26:53.298Z,30.47
2018-03-07T22:29:21.582Z,23.87
2018-03-07T22:31:49.099Z,31.57
2018-03-07T22:34:16.656Z,28.20
2018-03-07T22:36:44.154Z,26.20
2018-03-07T22:39:11.650Z,29.57
2018-03-07T22:41:39.102Z,25.23
2018-03-07T22:44:06.562Z,31.70
2018-03-07T22:46:34.055Z,26.00
2018-03-07T22:49:01.534Z,27.30
2018-03-07T22:51:28.999Z,23.50
2018-03-07T22:53:56.479Z,28.10
2018-03-07T22:56:23.951Z,26.50
2018-03-07T22:58:51.431Z,26.13
2018-03-07T23:01:19.263Z,27.30
2018-03-07T23:03:46.739Z,29.10
2018-03-07T23:06:14.274Z,33.50
2018-03-07T23:08:41.751Z,31.17
2018-03-07T23:11:09.234Z,28.73
2018-03-07T23:13:36.699Z,31.10
2018-03-07T23:16:04.942Z,32.10
2018-03-07T23:18:32.747Z,30.63
2018-03-07T23:21:00.278Z,32.23
2018-03-07T23:23:27.790Z,39.90
2018-03-07T23:25:55.268Z,37.27
2018-03-07T23:28:23.494Z,35.50
2018-03-07T23:30:50.973Z,37.90
2018-03-07T23:33:18.555Z,38.90
2018-03-07T23:35:46.032Z,38.40
2018-03-07T23:38:13.494Z,43.53
2018-03-07T23:40:40.954Z,36.83
2018-03-07T23:43:08.452Z,41.73
2018-03-07T23:45:35.920Z,34.60
2018-03-07T23:48:04.185Z,41.83
2018-03-07T23:50:31.671Z,45.40
2018-03-07T23:52:59.154Z,44.03
2018-03-07T23:55:26.627Z,38.07
2018-03-07T23:57:54.099Z,32.90
